createdAt,value
2019-04-16T00:01:45.373Z,5.61
2019-04-16T00:12:45.761Z,5.60
2019-04-16T00:17:48.174Z,5.61
2019-04-16T00:22:56.848Z,5.41
2019-04-16T00:28:00.197Z,5.45
2019-04-16T00:33:03.985Z,5.31
2019-04-16T00:38:06.050Z,5.20
2019-04-16T00:43:07.970Z,4.94
2019-04-16T00:48:09.859Z,4.58
2019-04-16T00:53:11.935Z,4.62
2019-04-16T00:58:13.907Z,4.73
2019-04-16T01:03:15.784Z,4.60
2019-04-16T01:08:17.741Z,4.52
2019-04-16T01:13:21.691Z,4.44
2019-04-16T01:18:23.430Z,4.52
2019-04-16T01:23:25.453Z,4.31
2019-04-16T01:28:32.026Z,4.21
2019-04-16T01:33:43.397Z,4.32
2019-04-16T01:39:15.176Z,4.02
2019-04-16T01:44:05.481Z,4.10
2019-04-16T01:49:10.451Z,4.16
2019-04-16T01:54:11.271Z,4.01
2019-04-16T01:59:13.371Z,3.92
2019-04-16T02:04:19.554Z,3.79
2019-04-16T02:09:22.709Z,3.82
2019-04-16T02:14:23.095Z,3.76
2019-04-16T02:19:26.176Z,3.68
2019-04-16T02:24:28.080Z,3.71
2019-04-16T02:29:30.699Z,3.58
2019-04-16T02:34:32.654Z,3.68
2019-04-16T02:39:47.703Z,3.57
2019-04-16T02:44:38.486Z,3.39
2019-04-16T02:49:40.410Z,3.17
2019-04-16T02:55:13.872Z,3.30
2019-04-16T03:00:32.364Z,3.07
2019-04-16T03:05:36.630Z,3.17
2019-04-16T03:10:38.669Z,3.27
2019-04-16T03:15:50.199Z,3.25
2019-04-16T03:20:52.496Z,3.25
2019-04-16T03:25:56.214Z,3.22
2019-04-16T03:30:58.194Z,3.21
2019-04-16T03:36:00.126Z,3.15
2019-04-16T03:41:02.068Z,3.14
2019-04-16T03:46:04.049Z,2.94
2019-04-16T03:51:05.980Z,2.91
2019-04-16T03:56:07.984Z,2.91
2019-04-16T04:01:09.975Z,2.72
2019-04-16T04:06:12.910Z,2.69
2019-04-16T04:11:15.113Z,2.56
2019-04-16T04:16:16.999Z,2.51
2019-04-16T04:21:22.320Z,2.36
2019-04-16T04:26:22.785Z,2.35
2019-04-16T04:31:24.694Z,2.33
2019-04-16T04:36:28.387Z,2.38
2019-04-16T04:41:30.617Z,2.43
2019-04-16T04:46:32.596Z,2.55
2019-04-16T04:51:36.863Z,2.42
2019-04-16T04:56:38.343Z,2.50
2019-04-16T05:01:42.041Z,2.43
2019-04-16T05:06:44.566Z,2.66
2019-04-16T05:11:48.363Z,2.70
2019-04-16T05:16:50.270Z,2.70
2019-04-16T05:21:52.363Z,2.96
2019-04-16T05:26:56.314Z,2.97
2019-04-16T05:31:58.394Z,3.13
2019-04-16T05:37:00.592Z,3.11
2019-04-16T05:42:02.609Z,3.20
2019-04-16T05:47:04.605Z,3.43
2019-04-16T05:52:06.594Z,3.44
2019-04-16T05:57:09.884Z,3.64
2019-04-16T06:02:19.906Z,3.69
2019-04-16T06:07:22.144Z,3.96
2019-04-16T06:12:27.053Z,4.09
2019-04-16T06:18:02.509Z,4.22
2019-04-16T06:23:20.804Z,4.44
2019-04-16T06:34:31.730Z,4.58
2019-04-16T06:39:43.726Z,4.93
2019-04-16T06:44:50.953Z,5.05
2019-04-16T06:50:12.573Z,5.21
2019-04-16T06:55:36.973Z,5.45
2019-04-16T07:00:48.574Z,5.57
2019-04-16T07:06:09.536Z,5.92
2019-04-16T07:11:11.567Z,6.10
2019-04-16T07:16:13.644Z,6.23
2019-04-16T07:21:17.520Z,6.47
2019-04-16T07:26:19.529Z,6.82
2019-04-16T07:31:34.233Z,7.08
2019-04-16T07:37:00.955Z,7.20
2019-04-16T07:42:12.107Z,7.50
2019-04-16T07:47:32.025Z,7.77
2019-04-16T07:52:51.073Z,8.08
2019-04-16T07:57:52.970Z,8.39
2019-04-16T08:02:54.920Z,8.58
2019-04-16T08:07:57.652Z,8.91
2019-04-16T08:13:09.911Z,9.18
2019-04-16T08:18:12.047Z,9.55
2019-04-16T08:23:31.706Z,9.82
2019-04-16T08:28:33.651Z,10.06
2019-04-16T08:33:35.641Z,10.29
2019-04-16T08:38:37.586Z,10.68
2019-04-16T08:43:39.492Z,10.78
2019-04-16T08:48:41.391Z,10.91
2019-04-16T08:53:46.783Z,11.27
2019-04-16T08:58:48.233Z,11.37
2019-04-16T09:03:50.153Z,11.48
2019-04-16T09:09:15.531Z,11.85
2019-04-16T09:14:16.759Z,11.88
2019-04-16T09:19:19.981Z,12.09
2019-04-16T09:24:29.363Z,12.38
2019-04-16T09:29:41.591Z,12.48
2019-04-16T09:35:09.807Z,12.75
2019-04-16T09:40:24.562Z,12.89
2019-04-16T09:45:26.803Z,13.32
2019-04-16T09:50:28.674Z,13.35
2019-04-16T09:55:30.623Z,13.61
2019-04-16T10:00:33.971Z,13.61
2019-04-16T10:05:36.042Z,13.84
2019-04-16T10:10:38.099Z,13.92
2019-04-16T10:15:40.100Z,14.26
2019-04-16T10:20:41.970Z,14.34
2019-04-16T10:25:43.864Z,14.67
2019-04-16T10:30:49.053Z,14.82
2019-04-16T10:35:51.118Z,15.06
2019-04-16T10:41:00.020Z,15.28
2019-04-16T10:46:20.146Z,15.45
2019-04-16T10:51:41.761Z,15.68
2019-04-16T10:57:02.532Z,15.80
2019-04-16T11:02:24.981Z,15.72
2019-04-16T11:07:28.162Z,15.93
2019-04-16T11:12:30.143Z,16.20
2019-04-16T11:17:32.249Z,16.57
2019-04-16T11:22:34.172Z,16.74
2019-04-16T11:27:36.043Z,17.05
2019-04-16T11:32:39.908Z,16.81
2019-04-16T11:37:44.485Z,17.47
2019-04-16T11:42:46.817Z,17.84
2019-04-16T11:47:48.720Z,18.07
2019-04-16T11:52:50.733Z,18.05
2019-04-16T11:57:54.014Z,18.06
2019-04-16T12:03:34.899Z,18.26
2019-04-16T12:09:02.911Z,18.63
2019-04-16T12:14:30.789Z,18.82
2019-04-16T12:19:44.963Z,18.69
2019-04-16T12:25:21.621Z,19.10
2019-04-16T12:30:40.309Z,19.38
2019-04-16T12:35:45.857Z,19.75
2019-04-16T12:41:07.991Z,19.84
2019-04-16T12:46:17.769Z,19.75
2019-04-16T12:57:10.652Z,20.32
2019-04-16T13:02:23.793Z,20.77
2019-04-16T13:07:33.456Z,20.82
2019-04-16T13:12:55.116Z,20.72
2019-04-16T13:18:25.593Z,21.14
2019-04-16T13:23:34.149Z,21.05
2019-04-16T13:28:37.194Z,21.20
2019-04-16T13:33:39.173Z,21.75
2019-04-16T13:38:45.113Z,21.73
2019-04-16T13:43:51.191Z,21.90
2019-04-16T13:49:01.227Z,21.91
2019-04-16T13:54:27.739Z,21.83
2019-04-16T14:00:02.980Z,21.86
2019-04-16T14:05:04.601Z,21.96
2019-04-16T14:10:05.698Z,22.50
2019-04-16T14:15:08.266Z,21.98
2019-04-16T14:20:12.279Z,22.62
2019-04-16T14:25:14.785Z,22.46
2019-04-16T14:30:19.630Z,22.93
2019-04-16T14:35:33.306Z,23.21
2019-04-16T14:40:31.180Z,23.63
2019-04-16T14:45:57.534Z,23.29
2019-04-16T14:50:51.463Z,23.58
2019-04-16T14:56:00.585Z,23.20
2019-04-16T15:01:22.264Z,23.10
2019-04-16T15:06:45.494Z,23.48
2019-04-16T15:12:07.940Z,23.38
2019-04-16T15:17:19.520Z,23.50
2019-04-16T15:22:40.357Z,24.47
2019-04-16T15:27:55.901Z,24.28
2019-04-16T15:33:16.517Z,24.79
2019-04-16T15:38:29.705Z,24.87
2019-04-16T15:43:40.394Z,24.40
2019-04-16T15:49:04.939Z,24.60
2019-04-16T15:54:29.264Z,24.82
2019-04-16T15:59:37.643Z,24.37
2019-04-16T16:05:02.135Z,24.20
2019-04-16T16:10:17.203Z,25.22
2019-04-16T16:15:19.140Z,25.75
2019-04-16T16:20:21.145Z,25.22
2019-04-16T16:25:23.193Z,25.16
2019-04-16T16:30:25.229Z,24.51
2019-04-16T16:35:27.145Z,24.31
2019-04-16T16:40:29.236Z,24.55
2019-04-16T16:45:59.528Z,24.36
2019-04-16T16:51:01.551Z,24.23
2019-04-16T16:56:13.622Z,24.08
2019-04-16T17:01:37.920Z,24.39
2019-04-16T17:06:39.849Z,24.19
2019-04-16T17:11:43.309Z,23.25
2019-04-16T17:16:45.752Z,23.18
2019-04-16T17:21:47.717Z,22.84
2019-04-16T17:26:50.221Z,22.60
2019-04-16T17:31:53.538Z,21.91
2019-04-16T17:36:55.691Z,21.18
2019-04-16T17:42:05.344Z,19.94
2019-04-16T17:47:32.112Z,18.64
2019-04-16T17:52:30.893Z,17.50
2019-04-16T17:58:03.997Z,16.80
2019-04-16T18:03:24.471Z,16.22
2019-04-16T18:08:46.021Z,15.80
2019-04-16T18:14:19.367Z,15.47
2019-04-16T18:19:39.064Z,14.90
2019-04-16T18:25:05.196Z,14.44
2019-04-16T18:30:29.787Z,14.38
2019-04-16T18:35:36.294Z,14.08
2019-04-16T18:40:56.233Z,14.01
2019-04-16T18:46:17.986Z,13.86
2019-04-16T18:51:19.959Z,13.70
2019-04-16T18:56:22.219Z,13.50
2019-04-16T19:01:29.562Z,13.42
2019-04-16T19:06:31.009Z,13.25
2019-04-16T19:11:32.909Z,12.80
2019-04-16T19:16:35.242Z,12.75
2019-04-16T19:21:37.167Z,12.71
2019-04-16T19:26:39.138Z,12.51
2019-04-16T19:31:41.062Z,12.43
2019-04-16T19:36:42.956Z,12.44
2019-04-16T19:41:44.882Z,12.09
2019-04-16T19:46:52.441Z,11.97
2019-04-16T19:51:50.960Z,11.78
2019-04-16T19:56:53.172Z,11.78
2019-04-16T20:01:59.551Z,11.70
2019-04-16T20:07:01.413Z,11.70
2019-04-16T20:12:03.748Z,11.58
2019-04-16T20:17:05.856Z,11.53
2019-04-16T20:22:07.786Z,11.42
2019-04-16T20:27:09.644Z,11.17
2019-04-16T20:32:11.666Z,11.20
2019-04-16T20:37:13.641Z,11.04
2019-04-16T20:42:15.649Z,10.91
2019-04-16T20:47:17.659Z,10.84
2019-04-16T20:52:19.679Z,10.73
2019-04-16T20:57:25.311Z,10.63
2019-04-16T21:02:28.396Z,10.39
2019-04-16T21:07:30.269Z,10.24
2019-04-16T21:12:32.397Z,10.08
2019-04-16T21:17:38.021Z,9.69
2019-04-16T21:22:38.396Z,10.04
2019-04-16T21:27:52.350Z,10.02
2019-04-16T21:33:12.210Z,9.98
2019-04-16T21:38:21.576Z,9.88
2019-04-16T21:43:23.494Z,9.79
2019-04-16T21:48:27.074Z,9.60
2019-04-16T21:53:29.456Z,9.29
2019-04-16T21:58:32.457Z,9.28
2019-04-16T22:03:34.633Z,9.20
2019-04-16T22:08:36.644Z,9.09
2019-04-16T22:13:38.542Z,9.11
2019-04-16T22:18:41.424Z,9.08
2019-04-16T22:23:44.174Z,8.93
2019-04-16T22:28:46.301Z,8.83
2019-04-16T22:33:48.182Z,8.76
2019-04-16T22:38:55.004Z,8.87
2019-04-16T22:44:18.548Z,8.66
2019-04-16T22:49:22.301Z,8.39
2019-04-16T22:54:25.331Z,8.56
2019-04-16T22:59:27.229Z,8.63
2019-04-16T23:04:29.101Z,8.53
2019-04-16T23:09:31.044Z,8.72
2019-04-16T23:14:34.914Z,8.36
2019-04-16T23:19:37.133Z,8.36
2019-04-16T23:24:39.080Z,8.32
2019-04-16T23:29:40.974Z,8.20
2019-04-16T23:34:42.838Z,8.06
2019-04-16T23:39:44.780Z,8.12
2019-04-16T23:45:12.282Z,8.01
2019-04-16T23:50:44.893Z,7.90
2019-04-16T23:55:56.371Z,7.87
